createdAt,value
2022-08-07T00:03:08.915Z,6.60
2022-08-07T00:08:09.217Z,7.07
2022-08-07T00:13:17.509Z,7.30
2022-08-07T00:18:26.163Z,7.32
2022-08-07T00:23:28.316Z,7.07
2022-08-07T00:28:33.200Z,6.78
2022-08-07T00:33:33.432Z,7.80
2022-08-07T00:38:35.009Z,6.97
2022-08-07T00:44:01.217Z,6.80
2022-08-07T00:48:54.519Z,8.00
2022-08-07T00:53:55.989Z,7.20
2022-08-07T00:58:54.890Z,7.25
2022-08-07T01:03:55.981Z,6.65
2022-08-07T01:09:01.480Z,7.05
2022-08-07T01:14:02.853Z,6.90
2022-08-07T01:19:01.722Z,6.97
2022-08-07T01:24:04.504Z,7.60
2022-08-07T01:29:03.793Z,6.82
2022-08-07T01:34:05.908Z,7.50
2022-08-07T01:39:10.741Z,7.53
2022-08-07T01:44:13.528Z,7.70
2022-08-07T01:49:14.036Z,8.02
2022-08-07T01:54:36.697Z,7.60
2022-08-07T01:59:45.546Z,7.50
2022-08-07T02:04:56.022Z,7.57
2022-08-07T02:10:01.106Z,7.32
2022-08-07T02:15:06.766Z,7.93
2022-08-07T02:20:17.277Z,6.72
2022-08-07T02:25:47.225Z,6.65
2022-08-07T02:30:44.679Z,7.30
2022-08-07T02:36:29.287Z,6.85
2022-08-07T02:41:14.493Z,6.40
2022-08-07T02:46:25.783Z,6.05
2022-08-07T02:51:42.813Z,6.78
2022-08-07T02:56:51.997Z,6.40
2022-08-07T03:01:52.290Z,5.75
2022-08-07T03:06:56.304Z,5.72
2022-08-07T03:12:02.813Z,5.25
2022-08-07T03:17:06.130Z,6.55
2022-08-07T03:22:18.557Z,6.65
2022-08-07T03:27:30.836Z,6.78
2022-08-07T03:32:49.037Z,7.50
2022-08-07T03:38:04.756Z,8.00
2022-08-07T03:43:10.061Z,7.55
2022-08-07T03:48:14.211Z,7.35
2022-08-07T03:53:13.280Z,6.90
2022-08-07T03:59:06.700Z,7.45
2022-08-07T04:03:49.833Z,7.27
2022-08-07T04:08:53.970Z,8.45
2022-08-07T04:19:17.285Z,7.10
2022-08-07T04:24:30.705Z,7.97
2022-08-07T04:29:58.244Z,8.95
2022-08-07T04:35:11.267Z,7.55
2022-08-07T04:40:12.928Z,7.72
2022-08-07T04:45:16.282Z,8.57
2022-08-07T04:50:38.223Z,7.97
2022-08-07T04:58:15.111Z,7.47
2022-08-07T05:01:18.429Z,7.82
2022-08-07T05:06:28.158Z,7.65
2022-08-07T05:11:57.075Z,7.68
2022-08-07T05:16:58.807Z,7.20
2022-08-07T05:22:02.000Z,7.07
2022-08-07T05:28:02.160Z,7.10
2022-08-07T05:32:32.713Z,6.63
2022-08-07T05:37:32.520Z,6.60
2022-08-07T05:42:40.516Z,6.07
2022-08-07T05:48:01.065Z,6.35
2022-08-07T05:53:04.145Z,6.70
2022-08-07T05:58:06.577Z,8.73
2022-08-07T06:03:12.946Z,7.10
2022-08-07T06:08:31.287Z,6.35
2022-08-07T06:14:10.461Z,6.57
2022-08-07T06:18:55.802Z,5.80
2022-08-07T06:24:52.288Z,7.00
2022-08-07T06:29:15.573Z,6.97
2022-08-07T06:34:16.072Z,6.95
2022-08-07T06:40:15.756Z,5.97
2022-08-07T06:44:41.102Z,7.15
2022-08-07T06:49:51.612Z,7.30
2022-08-07T06:55:31.764Z,6.88
2022-08-07T07:06:05.708Z,6.45
2022-08-07T07:10:47.576Z,7.47
2022-08-07T07:16:03.232Z,6.80
2022-08-07T07:21:19.236Z,6.88
2022-08-07T07:26:35.301Z,6.85
2022-08-07T07:31:44.591Z,6.53
2022-08-07T07:36:53.972Z,6.60
2022-08-07T07:42:13.750Z,5.88
2022-08-07T07:47:23.069Z,6.03
2022-08-07T07:57:52.082Z,5.87
2022-08-07T08:03:04.781Z,5.32
2022-08-07T08:08:07.895Z,6.00
2022-08-07T08:13:36.667Z,6.13
2022-08-07T08:18:50.438Z,6.47
2022-08-07T08:24:36.144Z,6.03
2022-08-07T08:29:54.723Z,6.50
2022-08-07T08:34:55.868Z,6.40
2022-08-07T08:39:58.388Z,6.47
2022-08-07T08:45:06.313Z,6.80
2022-08-07T08:50:35.131Z,6.53
2022-08-07T08:55:53.764Z,6.68
2022-08-07T09:01:15.148Z,6.30
2022-08-07T09:06:28.621Z,7.07
2022-08-07T09:11:50.731Z,6.22
2022-08-07T09:17:01.624Z,6.05
2022-08-07T09:24:27.447Z,5.78
2022-08-07T09:27:59.796Z,6.75
2022-08-07T09:33:16.710Z,5.90
2022-08-07T09:38:53.624Z,5.57
2022-08-07T09:44:19.211Z,5.72
2022-08-07T09:50:01.530Z,5.38
2022-08-07T09:55:17.256Z,5.13
2022-08-07T10:00:41.381Z,5.10
2022-08-07T10:06:10.536Z,4.95
2022-08-07T10:12:01.940Z,5.00
2022-08-07T10:17:14.499Z,4.97
2022-08-07T10:22:39.416Z,4.35
2022-08-07T10:28:12.781Z,5.57
2022-08-07T10:34:05.670Z,5.05
2022-08-07T10:39:12.345Z,4.80
2022-08-07T10:44:19.543Z,4.63
2022-08-07T10:49:49.815Z,4.75
2022-08-07T10:55:07.859Z,4.05
2022-08-07T11:05:50.863Z,4.13
2022-08-07T11:11:00.184Z,4.00
2022-08-07T11:16:07.172Z,4.05
2022-08-07T11:21:14.187Z,4.45
2022-08-07T11:26:21.429Z,4.53
2022-08-07T11:31:35.114Z,4.30
2022-08-07T11:36:50.881Z,4.03
2022-08-07T11:42:02.793Z,3.75
2022-08-07T11:47:10.420Z,3.72
2022-08-07T11:52:29.302Z,3.50
2022-08-07T11:58:00.112Z,4.82
2022-08-07T12:03:44.498Z,3.42
2022-08-07T12:08:49.168Z,3.50
2022-08-07T12:13:55.495Z,3.10
2022-08-07T12:19:02.823Z,3.30
2022-08-07T12:24:36.874Z,3.25
2022-08-07T12:29:37.799Z,3.63
2022-08-07T12:34:42.121Z,4.90
2022-08-07T12:39:51.958Z,3.58
2022-08-07T12:44:52.868Z,4.32
2022-08-07T12:50:04.650Z,4.60
2022-08-07T12:55:17.493Z,3.33
2022-08-07T13:00:21.018Z,3.47
2022-08-07T13:06:03.651Z,4.78
2022-08-07T13:11:18.399Z,4.25
2022-08-07T13:16:28.479Z,3.17
2022-08-07T13:21:37.830Z,3.03
2022-08-07T13:26:58.901Z,3.30
2022-08-07T13:32:23.621Z,3.53
2022-08-07T13:37:29.678Z,2.83
2022-08-07T13:42:35.183Z,3.10
2022-08-07T13:48:08.473Z,3.33
2022-08-07T13:53:01.046Z,6.18
2022-08-07T13:58:28.091Z,3.80
2022-08-07T14:04:07.329Z,4.25
2022-08-07T14:08:56.353Z,2.80
2022-08-07T14:14:09.506Z,2.85
2022-08-07T14:20:43.047Z,2.85
2022-08-07T14:24:41.523Z,3.10
2022-08-07T14:30:07.917Z,2.83
2022-08-07T14:35:10.764Z,3.13
2022-08-07T14:40:27.245Z,3.40
2022-08-07T14:45:46.346Z,4.60
2022-08-07T14:50:52.274Z,6.85
2022-08-07T15:01:22.294Z,2.80
2022-08-07T15:06:27.050Z,3.03
2022-08-07T15:11:53.742Z,2.55
2022-08-07T15:16:54.861Z,2.28
2022-08-07T15:22:04.629Z,2.60
2022-08-07T15:27:11.367Z,2.58
2022-08-07T15:32:13.055Z,2.40
2022-08-07T15:37:12.983Z,2.60
2022-08-07T15:42:51.823Z,2.47
2022-08-07T15:48:00.876Z,3.20
2022-08-07T15:53:05.060Z,8.60
2022-08-07T15:58:06.287Z,2.65
2022-08-07T16:03:22.179Z,3.20
2022-08-07T16:08:42.870Z,2.92
2022-08-07T16:14:04.923Z,3.63
2022-08-07T16:24:33.783Z,3.97
2022-08-07T16:30:10.898Z,3.80
2022-08-07T16:35:58.557Z,3.30
2022-08-07T16:41:23.187Z,2.90
2022-08-07T16:47:06.867Z,8.88
2022-08-07T16:52:51.964Z,4.22
2022-08-07T16:58:01.974Z,4.25
2022-08-07T17:03:18.261Z,10.63
2022-08-07T17:09:09.461Z,8.23
2022-08-07T17:14:17.977Z,10.40
2022-08-07T17:20:02.853Z,4.32
2022-08-07T17:25:10.076Z,5.22
2022-08-07T17:30:16.238Z,3.97
2022-08-07T17:35:50.271Z,3.22
2022-08-07T17:41:12.200Z,3.40
2022-08-07T17:46:34.456Z,3.58
2022-08-07T17:51:49.577Z,3.03
2022-08-07T17:57:02.625Z,3.85
2022-08-07T18:02:29.047Z,7.25
2022-08-07T18:07:43.888Z,4.00
2022-08-07T18:13:11.627Z,4.13
2022-08-07T18:18:46.770Z,3.45
2022-08-07T18:24:02.404Z,3.75
2022-08-07T18:30:07.238Z,4.07
2022-08-07T18:35:00.912Z,3.67
2022-08-07T18:40:18.008Z,3.67
2022-08-07T18:46:24.332Z,3.95
2022-08-07T18:52:33.560Z,4.03
2022-08-07T18:57:23.254Z,3.35
2022-08-07T19:02:34.107Z,3.80
2022-08-07T19:07:36.841Z,3.47
2022-08-07T19:13:11.556Z,3.58
2022-08-07T19:18:34.402Z,3.25
2022-08-07T19:23:57.940Z,3.85
2022-08-07T19:31:02.940Z,3.15
2022-08-07T19:34:34.271Z,3.50
2022-08-07T19:39:56.990Z,3.65
2022-08-07T19:44:56.660Z,3.25
2022-08-07T19:50:03.226Z,2.83
2022-08-07T19:55:24.217Z,3.15
2022-08-07T20:00:29.212Z,3.60
2022-08-07T20:06:00.929Z,3.42
2022-08-07T20:10:56.388Z,3.40
2022-08-07T20:16:03.526Z,3.33
2022-08-07T20:21:21.469Z,3.47
2022-08-07T20:26:32.107Z,3.45
2022-08-07T20:31:32.651Z,3.90
2022-08-07T20:36:37.229Z,3.95
2022-08-07T20:41:42.106Z,3.70
2022-08-07T20:46:44.981Z,3.80
2022-08-07T20:51:49.069Z,3.53
2022-08-07T20:56:52.967Z,4.53
2022-08-07T21:01:58.304Z,4.75
2022-08-07T21:07:04.403Z,3.92
2022-08-07T21:12:15.146Z,4.43
2022-08-07T21:18:09.705Z,4.47
2022-08-07T21:22:44.726Z,4.20
2022-08-07T21:27:55.311Z,4.10
2022-08-07T21:33:12.536Z,3.90
2022-08-07T21:38:27.537Z,4.53
2022-08-07T21:43:55.568Z,3.85
2022-08-07T21:49:14.787Z,3.88
2022-08-07T21:54:23.627Z,4.53
2022-08-07T21:59:36.260Z,4.28
2022-08-07T22:04:56.676Z,4.20
2022-08-07T22:10:03.348Z,4.75
2022-08-07T22:16:45.174Z,5.13
2022-08-07T22:20:35.680Z,4.28
2022-08-07T22:25:43.204Z,3.97
2022-08-07T22:30:56.165Z,4.68
2022-08-07T22:36:00.866Z,3.85
2022-08-07T22:41:08.874Z,4.15
2022-08-07T22:47:01.867Z,4.60
2022-08-07T22:51:52.340Z,4.35
2022-08-07T22:57:16.867Z,4.78
2022-08-07T23:02:31.371Z,4.95
2022-08-07T23:07:45.541Z,4.82
2022-08-07T23:12:57.411Z,4.75
2022-08-07T23:18:10.374Z,6.30
2022-08-07T23:24:04.490Z,7.18
2022-08-07T23:29:03.603Z,8.57
2022-08-07T23:34:40.666Z,5.55
2022-08-07T23:39:48.055Z,5.47
2022-08-07T23:45:33.454Z,4.50
2022-08-07T23:50:46.453Z,4.57
2022-08-07T23:55:55.610Z,4.55
